createdAt,value
2022-10-28T00:01:03.633Z,100.00
2022-10-28T00:03:31.375Z,100.00
2022-10-28T00:06:04.745Z,100.00
2022-10-28T00:08:32.867Z,100.00
2022-10-28T00:11:05.966Z,100.00
2022-10-28T00:13:34.092Z,100.00
2022-10-28T00:16:07.049Z,100.00
2022-10-28T00:18:34.830Z,100.00
2022-10-28T00:21:06.397Z,100.00
2022-10-28T00:23:34.387Z,100.00
2022-10-28T00:26:07.464Z,100.00
2022-10-28T00:28:35.295Z,100.00
2022-10-28T00:31:07.489Z,100.00
2022-10-28T00:33:35.415Z,100.00
2022-10-28T00:36:13.385Z,100.00
2022-10-28T00:38:42.040Z,100.00
2022-10-28T00:41:10.802Z,100.00
2022-10-28T00:43:41.143Z,100.00
2022-10-28T00:46:17.798Z,100.00
2022-10-28T00:48:48.644Z,100.00
2022-10-28T00:51:19.990Z,100.00
2022-10-28T00:53:49.158Z,100.00
2022-10-28T00:56:18.254Z,100.00
2022-10-28T00:58:49.036Z,100.00
2022-10-28T01:01:16.969Z,100.00
2022-10-28T01:03:44.782Z,100.00
2022-10-28T01:06:12.658Z,100.00
2022-10-28T01:08:41.720Z,100.00
2022-10-28T01:11:31.599Z,100.00
2022-10-28T01:14:20.223Z,100.00
2022-10-28T01:17:01.731Z,100.00
2022-10-28T01:19:57.888Z,100.00
2022-10-28T01:22:29.177Z,100.00
2022-10-28T01:25:27.930Z,100.00
2022-10-28T01:28:10.117Z,100.00
2022-10-28T01:30:57.350Z,100.00
2022-10-28T01:33:30.676Z,100.00
2022-10-28T01:36:06.119Z,100.00
2022-10-28T01:38:40.700Z,100.00
2022-10-28T01:41:13.013Z,100.00
2022-10-28T01:43:49.867Z,100.00
2022-10-28T01:46:26.737Z,100.00
2022-10-28T01:48:58.261Z,100.00
2022-10-28T01:51:30.326Z,100.00
2022-10-28T01:54:02.194Z,100.00
2022-10-28T01:56:34.016Z,100.00
2022-10-28T01:59:04.273Z,100.00
2022-10-28T02:01:35.112Z,100.00
2022-10-28T02:04:03.365Z,100.00
2022-10-28T02:06:34.720Z,100.00
2022-10-28T02:09:11.026Z,100.00
2022-10-28T02:11:54.878Z,100.00
2022-10-28T02:14:39.158Z,100.00
2022-10-28T02:17:14.630Z,100.00
2022-10-28T02:19:50.400Z,100.00
2022-10-28T02:22:23.572Z,100.00
2022-10-28T02:25:01.394Z,100.00
2022-10-28T02:27:35.070Z,100.00
2022-10-28T02:30:06.925Z,100.00
2022-10-28T02:32:41.009Z,100.00
2022-10-28T02:35:13.155Z,100.00
2022-10-28T02:37:42.613Z,100.00
2022-10-28T02:40:16.208Z,100.00
2022-10-28T02:42:48.369Z,100.00
2022-10-28T02:45:19.259Z,100.00
2022-10-28T02:47:56.103Z,100.00
2022-10-28T02:50:31.380Z,100.00
2022-10-28T02:53:03.556Z,100.00
2022-10-28T02:55:39.231Z,100.00
2022-10-28T02:58:07.563Z,100.00
2022-10-28T03:00:35.204Z,100.00
2022-10-28T03:03:05.054Z,100.00
2022-10-28T03:05:32.738Z,100.00
2022-10-28T03:08:00.380Z,100.00
2022-10-28T03:10:28.016Z,100.00
2022-10-28T03:12:55.756Z,100.00
2022-10-28T03:15:23.423Z,100.00
2022-10-28T03:17:51.452Z,100.00
2022-10-28T03:20:20.794Z,100.00
2022-10-28T03:22:48.460Z,100.00
2022-10-28T03:25:16.257Z,100.00
2022-10-28T03:27:44.000Z,100.00
2022-10-28T03:30:12.226Z,100.00
2022-10-28T03:32:42.739Z,100.00
2022-10-28T03:35:10.691Z,100.00
2022-10-28T03:37:42.428Z,100.00
2022-10-28T03:40:11.130Z,100.00
2022-10-28T03:42:40.416Z,100.00
2022-10-28T03:45:09.332Z,100.00
2022-10-28T03:47:37.433Z,100.00
2022-10-28T03:50:05.370Z,100.00
2022-10-28T03:52:33.000Z,100.00
2022-10-28T03:55:02.088Z,100.00
2022-10-28T03:57:31.418Z,100.00
2022-10-28T03:59:59.114Z,100.00
2022-10-28T04:02:27.605Z,100.00
2022-10-28T04:04:55.366Z,100.00
2022-10-28T04:07:23.774Z,100.00
2022-10-28T04:09:51.500Z,100.00
2022-10-28T04:12:20.518Z,100.00
2022-10-28T04:14:50.289Z,100.00
2022-10-28T04:17:18.393Z,100.00
2022-10-28T04:19:46.052Z,100.00
2022-10-28T04:22:13.752Z,100.00
2022-10-28T04:24:41.420Z,100.00
2022-10-28T04:27:09.119Z,100.00
2022-10-28T04:29:38.159Z,100.00
2022-10-28T04:32:05.886Z,100.00
2022-10-28T04:34:33.553Z,100.00
2022-10-28T04:37:01.226Z,100.00
2022-10-28T04:39:28.853Z,100.00
2022-10-28T04:41:56.493Z,100.00
2022-10-28T04:44:24.306Z,100.00
2022-10-28T04:46:53.316Z,100.00
2022-10-28T04:49:20.977Z,100.00
2022-10-28T04:51:48.638Z,100.00
2022-10-28T04:54:16.445Z,100.00
2022-10-28T04:56:44.124Z,100.00
2022-10-28T04:59:11.964Z,100.00
2022-10-28T05:01:39.794Z,100.00
2022-10-28T05:04:09.178Z,100.00
2022-10-28T05:06:36.817Z,100.00
2022-10-28T05:09:04.858Z,100.00
2022-10-28T05:11:32.523Z,100.00
2022-10-28T05:14:00.234Z,100.00
2022-10-28T05:16:27.872Z,100.00
2022-10-28T05:18:55.617Z,100.00
2022-10-28T05:21:24.656Z,100.00
2022-10-28T05:23:52.367Z,100.00
2022-10-28T05:26:20.493Z,100.00
2022-10-28T05:28:51.078Z,100.00
2022-10-28T05:31:18.923Z,100.00
2022-10-28T05:33:46.639Z,100.00
2022-10-28T05:36:14.343Z,100.00
2022-10-28T05:38:45.332Z,100.00
2022-10-28T05:41:13.046Z,100.00
2022-10-28T05:43:40.713Z,100.00
2022-10-28T05:46:08.373Z,100.00
2022-10-28T05:48:37.130Z,100.00
2022-10-28T05:51:05.022Z,100.00
2022-10-28T05:53:32.780Z,100.00
2022-10-28T05:56:01.794Z,100.00
2022-10-28T05:58:29.497Z,100.00
2022-10-28T06:00:57.140Z,100.00
2022-10-28T06:03:30.067Z,100.00
2022-10-28T06:05:59.594Z,100.00
2022-10-28T06:08:27.378Z,100.00
2022-10-28T06:10:54.430Z,100.00
2022-10-28T06:13:23.734Z,100.00
2022-10-28T06:15:51.925Z,100.00
2022-10-28T06:18:19.781Z,100.00
2022-10-28T06:20:52.574Z,100.00
2022-10-28T06:23:20.241Z,100.00
2022-10-28T06:25:47.927Z,100.00
2022-10-28T06:28:15.817Z,100.00
2022-10-28T06:30:44.794Z,100.00
2022-10-28T06:33:12.432Z,100.00
2022-10-28T06:35:40.091Z,100.00
2022-10-28T06:38:09.538Z,100.00
2022-10-28T06:40:37.471Z,100.00
2022-10-28T06:43:06.780Z,100.00
2022-10-28T06:45:35.122Z,100.00
2022-10-28T06:48:07.532Z,100.00
2022-10-28T06:50:36.132Z,100.00
2022-10-28T06:53:04.257Z,100.00
2022-10-28T06:55:32.173Z,100.00
2022-10-28T06:58:01.220Z,100.00
2022-10-28T07:03:02.675Z,100.00
2022-10-28T07:05:31.900Z,100.00
2022-10-28T07:07:59.619Z,100.00
2022-10-28T07:10:27.352Z,100.00
2022-10-28T07:12:55.350Z,100.00
2022-10-28T07:15:23.477Z,100.00
2022-10-28T07:17:53.775Z,100.00
2022-10-28T07:20:21.551Z,100.00
2022-10-28T07:22:56.916Z,100.00
2022-10-28T07:25:24.647Z,100.00
2022-10-28T07:27:52.705Z,100.00
2022-10-28T07:30:20.618Z,100.00
2022-10-28T07:32:48.323Z,100.00
2022-10-28T07:35:16.087Z,100.00
2022-10-28T07:37:43.784Z,100.00
2022-10-28T07:40:13.304Z,100.00
2022-10-28T07:42:40.960Z,100.00
2022-10-28T07:45:09.239Z,100.00
2022-10-28T07:47:36.900Z,100.00
2022-10-28T07:50:05.704Z,100.00
2022-10-28T07:52:33.854Z,100.00
2022-10-28T07:55:01.517Z,100.00
2022-10-28T07:57:30.691Z,100.00
2022-10-28T07:59:58.435Z,100.00
2022-10-28T08:02:26.703Z,100.00
2022-10-28T08:04:55.871Z,100.00
2022-10-28T08:07:23.916Z,100.00
2022-10-28T08:09:53.225Z,100.00
2022-10-28T08:12:21.020Z,100.00
2022-10-28T08:14:50.152Z,100.00
2022-10-28T08:17:17.934Z,100.00
2022-10-28T08:19:45.592Z,100.00
2022-10-28T08:22:13.252Z,100.00
2022-10-28T08:24:40.886Z,100.00
2022-10-28T08:27:08.585Z,100.00
2022-10-28T08:29:36.255Z,100.00
2022-10-28T08:32:05.361Z,100.00
2022-10-28T08:34:33.077Z,100.00
2022-10-28T08:37:00.763Z,100.00
2022-10-28T08:39:28.490Z,100.00
2022-10-28T08:42:03.891Z,100.00
2022-10-28T08:45:01.495Z,100.00
2022-10-28T08:47:39.490Z,100.00
2022-10-28T08:50:14.511Z,100.00
2022-10-28T08:52:46.901Z,100.00
2022-10-28T08:55:18.142Z,100.00
2022-10-28T08:57:50.198Z,100.00
2022-10-28T09:00:21.918Z,100.00
2022-10-28T09:03:00.268Z,100.00
2022-10-28T09:05:28.573Z,100.00
2022-10-28T09:07:57.391Z,100.00
2022-10-28T09:11:06.673Z,100.00
2022-10-28T09:13:47.033Z,100.00
2022-10-28T09:16:23.129Z,100.00
2022-10-28T09:18:54.623Z,100.00
2022-10-28T09:21:30.573Z,100.00
2022-10-28T09:24:00.831Z,100.00
2022-10-28T09:26:38.509Z,100.00
2022-10-28T09:29:20.562Z,100.00
2022-10-28T09:31:51.128Z,100.00
2022-10-28T09:34:31.899Z,100.00
2022-10-28T09:37:05.608Z,100.00
2022-10-28T09:39:42.555Z,100.00
2022-10-28T09:42:17.814Z,100.00
2022-10-28T09:44:50.475Z,100.00
2022-10-28T09:47:22.518Z,100.00
2022-10-28T09:49:55.512Z,100.00
2022-10-28T09:52:26.082Z,100.00
2022-10-28T09:54:56.133Z,98.58
2022-10-28T09:57:30.460Z,100.00
2022-10-28T09:59:58.580Z,97.48
2022-10-28T10:02:29.597Z,96.22
2022-10-28T10:05:00.418Z,88.46
2022-10-28T10:07:35.780Z,89.82
2022-10-28T10:10:07.773Z,87.75
2022-10-28T10:12:35.555Z,82.12
2022-10-28T10:15:06.987Z,79.50
2022-10-28T10:17:40.325Z,77.06
2022-10-28T10:20:11.715Z,76.08
2022-10-28T10:22:41.122Z,76.19
2022-10-28T10:25:25.201Z,76.21
2022-10-28T10:27:55.255Z,77.13
2022-10-28T10:30:26.728Z,79.43
2022-10-28T10:32:54.513Z,73.63
2022-10-28T10:35:25.950Z,64.35
2022-10-28T10:37:56.895Z,68.91
2022-10-28T10:40:27.400Z,70.61
2022-10-28T10:43:13.125Z,63.04
2022-10-28T10:45:41.780Z,63.37
2022-10-28T10:48:14.921Z,65.13
2022-10-28T10:50:46.790Z,67.85
2022-10-28T10:53:24.646Z,69.05
2022-10-28T10:55:58.665Z,70.34
2022-10-28T10:58:29.321Z,66.91
2022-10-28T11:01:00.643Z,66.67
2022-10-28T11:03:34.696Z,68.36
2022-10-28T11:06:23.933Z,68.59
2022-10-28T11:08:58.319Z,67.53
2022-10-28T11:11:34.352Z,68.75
2022-10-28T11:14:08.557Z,67.71
2022-10-28T11:16:48.710Z,69.30
2022-10-28T11:19:22.695Z,65.09
2022-10-28T11:22:10.183Z,69.42
2022-10-28T11:24:56.589Z,65.87
2022-10-28T11:27:35.294Z,68.93
2022-10-28T11:30:03.312Z,70.09
2022-10-28T11:32:50.138Z,72.47
2022-10-28T11:35:43.805Z,68.17
2022-10-28T11:38:23.680Z,64.46
2022-10-28T11:41:05.144Z,66.99
2022-10-28T11:43:39.666Z,61.38
2022-10-28T11:46:14.606Z,59.93
2022-10-28T11:48:58.198Z,61.44
2022-10-28T11:51:38.846Z,58.03
2022-10-28T11:54:32.397Z,58.39
2022-10-28T11:57:04.891Z,59.10
2022-10-28T12:00:02.134Z,60.42
2022-10-28T12:02:54.763Z,61.33
2022-10-28T12:05:29.210Z,58.76
2022-10-28T12:08:23.013Z,57.84
2022-10-28T12:11:04.815Z,56.10
2022-10-28T12:13:41.244Z,59.13
2022-10-28T12:16:17.448Z,55.87
2022-10-28T12:18:53.348Z,54.93
2022-10-28T12:21:29.083Z,56.13
2022-10-28T12:23:59.310Z,58.00
2022-10-28T12:26:39.527Z,55.98
2022-10-28T12:29:14.456Z,59.81
2022-10-28T12:31:46.399Z,63.51
2022-10-28T12:34:17.597Z,59.19
2022-10-28T12:36:53.493Z,61.30
2022-10-28T12:39:24.238Z,64.79
2022-10-28T12:41:59.855Z,62.19
2022-10-28T12:44:29.465Z,63.72
2022-10-28T12:47:06.235Z,64.50
2022-10-28T12:49:45.732Z,59.75
2022-10-28T12:52:28.329Z,59.05
2022-10-28T12:55:02.287Z,59.07
2022-10-28T12:57:34.118Z,59.98
2022-10-28T13:00:07.532Z,62.24
2022-10-28T13:02:41.648Z,66.15
2022-10-28T13:05:20.557Z,67.91
2022-10-28T13:08:04.363Z,66.06
2022-10-28T13:10:40.000Z,68.17
2022-10-28T13:13:22.194Z,70.91
2022-10-28T13:16:09.131Z,70.63
2022-10-28T13:18:59.269Z,69.13
2022-10-28T13:21:54.053Z,70.92
2022-10-28T13:24:30.234Z,71.72
2022-10-28T13:26:58.754Z,66.10
2022-10-28T13:29:31.043Z,61.74
2022-10-28T13:31:58.988Z,59.67
2022-10-28T13:34:33.470Z,60.49
2022-10-28T13:37:04.280Z,62.37
2022-10-28T13:39:44.918Z,62.25
2022-10-28T13:42:33.140Z,61.08
2022-10-28T13:45:03.548Z,61.21
2022-10-28T13:47:32.962Z,56.18
2022-10-28T13:50:23.307Z,57.81
2022-10-28T13:53:29.639Z,61.71
2022-10-28T13:55:58.792Z,60.96
2022-10-28T13:58:27.508Z,60.62
2022-10-28T14:00:56.649Z,62.16
2022-10-28T14:03:26.779Z,61.72
2022-10-28T14:05:57.336Z,63.93
2022-10-28T14:08:29.573Z,67.88
2022-10-28T14:11:04.129Z,79.59
2022-10-28T14:13:35.361Z,92.56
2022-10-28T14:16:24.688Z,99.32
2022-10-28T14:18:56.162Z,100.00
2022-10-28T14:21:24.944Z,100.00
2022-10-28T14:24:31.943Z,100.00
2022-10-28T14:27:41.579Z,100.00
2022-10-28T14:30:15.881Z,100.00
2022-10-28T14:32:52.075Z,100.00
2022-10-28T14:35:30.153Z,100.00
2022-10-28T14:38:19.100Z,100.00
2022-10-28T14:40:51.467Z,100.00
2022-10-28T14:43:59.005Z,100.00
2022-10-28T14:46:41.407Z,100.00
2022-10-28T14:49:20.100Z,100.00
2022-10-28T14:51:50.820Z,100.00
2022-10-28T14:54:24.521Z,100.00
2022-10-28T14:56:55.990Z,100.00
2022-10-28T14:59:26.879Z,100.00
2022-10-28T15:02:05.276Z,100.00
2022-10-28T15:04:34.363Z,100.00
2022-10-28T15:07:02.159Z,100.00
2022-10-28T15:09:31.487Z,100.00
2022-10-28T15:12:02.311Z,100.00
2022-10-28T15:14:36.710Z,100.00
2022-10-28T15:17:13.259Z,100.00
2022-10-28T15:19:43.242Z,100.00
2022-10-28T15:22:17.161Z,100.00
2022-10-28T15:24:57.511Z,100.00
2022-10-28T15:27:27.088Z,100.00
2022-10-28T15:29:55.808Z,100.00
2022-10-28T15:32:29.434Z,100.00
2022-10-28T15:34:59.057Z,100.00
2022-10-28T15:37:29.633Z,100.00
2022-10-28T15:40:22.012Z,100.00
2022-10-28T15:42:57.461Z,100.00
2022-10-28T15:45:27.082Z,100.00
2022-10-28T15:47:56.577Z,100.00
2022-10-28T15:50:32.032Z,100.00
2022-10-28T15:53:23.103Z,100.00
2022-10-28T15:56:10.296Z,100.00
2022-10-28T15:58:40.324Z,100.00
2022-10-28T16:01:11.206Z,100.00
2022-10-28T16:03:44.243Z,100.00
2022-10-28T16:06:26.759Z,100.00
2022-10-28T16:09:07.352Z,100.00
2022-10-28T16:11:39.305Z,100.00
2022-10-28T16:14:24.604Z,100.00
2022-10-28T16:16:56.901Z,100.00
2022-10-28T16:19:29.995Z,100.00
2022-10-28T16:21:59.111Z,100.00
2022-10-28T16:24:26.928Z,100.00
2022-10-28T16:26:54.760Z,100.00
2022-10-28T16:29:22.513Z,100.00
2022-10-28T16:31:52.504Z,100.00
2022-10-28T16:34:20.188Z,100.00
2022-10-28T16:36:47.849Z,100.00
2022-10-28T16:39:21.951Z,100.00
2022-10-28T16:41:58.595Z,100.00
2022-10-28T16:44:28.015Z,100.00
2022-10-28T16:46:58.685Z,100.00
2022-10-28T16:49:26.403Z,100.00
2022-10-28T16:52:06.881Z,100.00
2022-10-28T16:54:35.919Z,100.00
2022-10-28T16:57:03.806Z,100.00
2022-10-28T16:59:31.655Z,100.00
2022-10-28T17:01:59.599Z,100.00
2022-10-28T17:04:27.461Z,100.00
2022-10-28T17:06:55.161Z,100.00
2022-10-28T17:09:22.906Z,100.00
2022-10-28T17:11:53.971Z,100.00
2022-10-28T17:14:21.689Z,100.00
2022-10-28T17:16:49.408Z,100.00
2022-10-28T17:19:17.260Z,100.00
2022-10-28T17:21:44.960Z,100.00
2022-10-28T17:24:13.909Z,100.00
2022-10-28T17:26:43.865Z,100.00
2022-10-28T17:29:13.066Z,100.00
2022-10-28T17:31:40.815Z,100.00
2022-10-28T17:34:08.499Z,100.00
2022-10-28T17:36:36.144Z,100.00
2022-10-28T17:39:04.016Z,100.00
2022-10-28T17:41:31.736Z,100.00
2022-10-28T17:43:59.631Z,100.00
2022-10-28T17:46:28.692Z,100.00
2022-10-28T17:48:56.438Z,100.00
2022-10-28T17:51:26.220Z,100.00
2022-10-28T17:53:54.806Z,100.00
2022-10-28T17:56:22.671Z,100.00
2022-10-28T17:58:53.360Z,100.00
2022-10-28T18:01:21.404Z,100.00
2022-10-28T18:03:51.581Z,100.00
2022-10-28T18:06:19.241Z,100.00
2022-10-28T18:08:47.046Z,100.00
2022-10-28T18:11:16.761Z,100.00
2022-10-28T18:13:47.560Z,100.00
2022-10-28T18:16:17.228Z,100.00
2022-10-28T18:18:45.124Z,100.00
2022-10-28T18:21:15.023Z,100.00
2022-10-28T18:23:43.025Z,100.00
2022-10-28T18:26:12.662Z,100.00
2022-10-28T18:28:41.699Z,100.00
2022-10-28T18:31:12.209Z,100.00
2022-10-28T18:33:40.266Z,100.00
2022-10-28T18:36:11.203Z,100.00
2022-10-28T18:38:40.457Z,100.00
2022-10-28T18:41:11.605Z,100.00
2022-10-28T18:43:39.501Z,100.00
2022-10-28T18:46:07.722Z,100.00
2022-10-28T18:48:35.868Z,100.00
2022-10-28T18:51:06.618Z,100.00
2022-10-28T18:53:36.570Z,100.00
2022-10-28T18:56:07.452Z,100.00
2022-10-28T18:58:35.207Z,100.00
2022-10-28T19:01:08.071Z,100.00
2022-10-28T19:03:36.321Z,100.00
2022-10-28T19:06:05.857Z,100.00
2022-10-28T19:08:33.914Z,100.00
2022-10-28T19:11:02.752Z,100.00
2022-10-28T19:13:33.757Z,100.00
2022-10-28T19:16:01.598Z,100.00
2022-10-28T19:18:29.368Z,100.00
2022-10-28T19:21:04.130Z,100.00
2022-10-28T19:23:32.653Z,100.00
2022-10-28T19:26:01.174Z,100.00
2022-10-28T19:28:31.476Z,100.00
2022-10-28T19:31:03.687Z,100.00
2022-10-28T19:33:32.345Z,100.00
2022-10-28T19:36:05.036Z,100.00
2022-10-28T19:38:34.579Z,100.00
2022-10-28T19:41:03.576Z,100.00
2022-10-28T19:43:33.030Z,100.00
2022-10-28T19:46:10.198Z,100.00
2022-10-28T19:48:38.853Z,100.00
2022-10-28T19:51:07.337Z,100.00
2022-10-28T19:53:35.512Z,100.00
2022-10-28T19:56:04.942Z,100.00
2022-10-28T19:58:34.783Z,100.00
2022-10-28T20:01:04.319Z,100.00
2022-10-28T20:03:34.621Z,100.00
2022-10-28T20:06:06.587Z,100.00
2022-10-28T20:08:36.305Z,100.00
2022-10-28T20:11:05.878Z,100.00
2022-10-28T20:13:35.929Z,100.00
2022-10-28T20:16:05.513Z,100.00
2022-10-28T20:18:34.504Z,100.00
2022-10-28T20:21:06.668Z,100.00
2022-10-28T20:23:35.671Z,100.00
2022-10-28T20:26:05.477Z,100.00
2022-10-28T20:28:33.512Z,100.00
2022-10-28T20:31:04.373Z,100.00
2022-10-28T20:33:32.557Z,100.00
2022-10-28T20:36:00.572Z,100.00
2022-10-28T20:38:29.403Z,100.00
2022-10-28T20:40:58.660Z,100.00
2022-10-28T20:43:28.896Z,100.00
2022-10-28T20:45:58.681Z,100.00
2022-10-28T20:48:29.087Z,100.00
2022-10-28T20:50:58.368Z,100.00
2022-10-28T20:53:27.488Z,100.00
2022-10-28T20:55:56.543Z,100.00
2022-10-28T20:58:26.015Z,100.00
2022-10-28T21:00:54.040Z,100.00
2022-10-28T21:03:22.614Z,100.00
2022-10-28T21:05:51.610Z,100.00
2022-10-28T21:08:19.250Z,100.00
2022-10-28T21:10:46.947Z,100.00
2022-10-28T21:13:14.577Z,100.00
2022-10-28T21:15:44.897Z,100.00
2022-10-28T21:18:13.546Z,100.00
2022-10-28T21:20:41.471Z,100.00
2022-10-28T21:23:11.526Z,100.00
2022-10-28T21:25:39.902Z,100.00
2022-10-28T21:28:07.585Z,100.00
2022-10-28T21:30:35.217Z,100.00
2022-10-28T21:33:03.699Z,100.00
2022-10-28T21:35:31.347Z,100.00
2022-10-28T21:37:59.071Z,100.00
2022-10-28T21:40:28.159Z,100.00
2022-10-28T21:42:55.858Z,100.00
2022-10-28T21:45:24.174Z,100.00
2022-10-28T21:47:55.152Z,100.00
2022-10-28T21:50:23.068Z,100.00
2022-10-28T21:52:50.778Z,100.00
2022-10-28T21:55:20.845Z,100.00
2022-10-28T21:57:56.197Z,100.00
2022-10-28T22:00:24.145Z,100.00
2022-10-28T22:02:52.097Z,100.00
2022-10-28T22:05:19.858Z,100.00
2022-10-28T22:07:47.537Z,100.00
2022-10-28T22:10:15.225Z,100.00
2022-10-28T22:12:42.887Z,100.00
2022-10-28T22:15:12.037Z,100.00
2022-10-28T22:17:40.313Z,100.00
2022-10-28T22:20:09.753Z,100.00
2022-10-28T22:22:37.654Z,100.00
2022-10-28T22:25:09.349Z,100.00
2022-10-28T22:27:38.285Z,100.00
2022-10-28T22:30:06.551Z,100.00
2022-10-28T22:32:35.605Z,100.00
2022-10-28T22:35:03.412Z,100.00
2022-10-28T22:37:32.452Z,100.00
2022-10-28T22:40:00.099Z,100.00
2022-10-28T22:42:27.796Z,100.00
2022-10-28T22:44:55.435Z,100.00
2022-10-28T22:47:23.214Z,100.00
2022-10-28T22:49:52.347Z,100.00
2022-10-28T22:52:20.159Z,100.00
2022-10-28T22:54:47.870Z,100.00
2022-10-28T22:57:15.607Z,100.00
2022-10-28T22:59:43.319Z,100.00
2022-10-28T23:02:11.193Z,100.00
2022-10-28T23:04:39.022Z,100.00
2022-10-28T23:07:08.003Z,100.00
2022-10-28T23:09:35.726Z,100.00
2022-10-28T23:12:03.418Z,100.00
2022-10-28T23:14:31.127Z,100.00
2022-10-28T23:16:59.618Z,100.00
2022-10-28T23:19:27.327Z,100.00
2022-10-28T23:21:54.981Z,100.00
2022-10-28T23:24:24.097Z,100.00
2022-10-28T23:26:51.843Z,100.00
2022-10-28T23:29:19.510Z,100.00
2022-10-28T23:31:47.156Z,100.00
2022-10-28T23:34:14.791Z,100.00
2022-10-28T23:36:42.440Z,100.00
2022-10-28T23:39:10.245Z,100.00
2022-10-28T23:41:39.266Z,100.00
2022-10-28T23:44:06.932Z,100.00
2022-10-28T23:46:37.385Z,100.00
2022-10-28T23:49:05.486Z,100.00
2022-10-28T23:51:33.149Z,100.00
2022-10-28T23:54:00.986Z,100.00
2022-10-28T23:56:28.660Z,100.00
2022-10-28T23:58:57.762Z,100.00
